KLIC/LIC METAR and TAF weather

Enter ICAO airport designator
Station Type Date Time Source
KLIC METAR 2020/08/15 10:24 UTC NOAA

KLIC 151024Z AUTO 13008KT 10SM OVC009 19/17 A3024 RMK AO2 T01890167


Station Type Date Time Source
KLIC Decoded METAR 2020/08/15 10:24 UTC NOAA

LIMON MUNICIPAL AIRPORT, CO, United States (KLIC) 39-16N 103-40W 1630M
Aug 15, 2020 - 06:24 AM EDT / 2020.08.15 1024 UTC
Wind: from the SE (130 degrees) at 9 MPH (8 KT):0
Visibility: 10 mile(s):0
Sky conditions: overcast
Temperature: 66.0 F (18.9 C)
Dew Point: 62.1 F (16.7 C)
Relative Humidity: 87%
Pressure (altimeter): 30.24 in. Hg (1024 hPa)
ob: KLIC 151024Z AUTO 13008KT 10SM OVC009 19/17 A3024 RMK AO2 T01890167
cycle: 10

Station Type Date Time Source
KLIC TAF UTC NOAA

Error!

Example: see airport list